Time;durP1;ratioP1;P1;durP2;ratioP2;P2;SDS_P1;SDS_P2;PMS_P1;PMS_P2;Temp;Humidity;BMP_temperature;BMP_pressure;BME280_temperature;BME280_humidity;BME280_pressure;Samples;Min_cycle;Max_cycle;Signal;HPM_P1;HPM_P2
2022/03/20 00:01:16;;;;;;;5.38;0.98;;;7.10;98.80;;;;;;5016152;28;20127;-30
2022/03/20 00:03:42;;;;;;;1.40;1.30;;;7.00;99.00;;;;;;5016150;28;20021;-33
2022/03/20 00:06:08;;;;;;;3.50;1.67;;;7.00;99.00;;;;;;5016138;28;20077;-32
2022/03/20 00:08:33;;;;;;;7.18;1.30;;;7.00;99.50;;;;;;4999227;28;20030;-31
2022/03/20 00:11:01;;;;;;;4.03;1.50;;;7.00;99.40;;;;;;5016401;28;20371;-32
2022/03/20 00:13:28;;;;;;;4.25;1.35;;;7.00;99.40;;;;;;4998734;28;20026;-35
2022/03/20 00:15:56;;;;;;;5.95;1.55;;;6.90;99.70;;;;;;4998415;28;20133;-33
2022/03/20 00:18:26;;;;;;;4.90;2.25;;;6.90;99.80;;;;;;5016127;28;20033;-35
2022/03/20 00:20:57;;;;;;;3.90;1.75;;;6.90;99.90;;;;;;5016019;28;20469;-33
2022/03/20 00:23:23;;;;;;;3.22;1.30;;;6.80;99.90;;;;;;4997986;28;20037;-37
2022/03/20 00:25:50;;;;;;;2.42;1.60;;;6.80;99.90;;;;;;5016012;28;20113;-38
2022/03/20 00:28:18;;;;;;;2.80;1.52;;;6.80;99.90;;;;;;5016073;28;20026;-39
2022/03/20 00:30:44;;;;;;;4.10;1.67;;;6.80;99.90;;;;;;5016449;28;20046;-39
2022/03/20 00:33:10;;;;;;;2.60;1.70;;;6.80;99.90;;;;;;4998273;28;20029;-40
2022/03/20 00:35:36;;;;;;;6.07;2.15;;;6.80;99.90;;;;;;5015897;28;20109;-39
2022/03/20 00:38:06;;;;;;;3.72;1.70;;;6.80;99.90;;;;;;5015663;28;20030;-38
2022/03/20 00:40:32;;;;;;;4.78;2.10;;;6.70;99.90;;;;;;5015369;28;20080;-38
2022/03/20 00:42:58;;;;;;;4.05;2.45;;;6.60;99.90;;;;;;5015681;28;20033;-31
2022/03/20 00:45:24;;;;;;;6.68;2.35;;;6.50;99.90;;;;;;5015672;28;20026;-32
2022/03/20 00:47:50;;;;;;;7.07;2.55;;;6.50;99.90;;;;;;5015422;28;20029;-29
2022/03/20 00:50:16;;;;;;;4.20;2.05;;;6.40;99.90;;;;;;5015444;28;20036;-35
2022/03/20 00:52:42;;;;;;;5.00;2.22;;;6.40;99.90;;;;;;4997808;28;20057;-35
2022/03/20 00:55:08;;;;;;;4.43;2.65;;;6.40;99.90;;;;;;5015671;28;20125;-29
2022/03/20 00:57:37;;;;;;;5.25;2.55;;;6.50;99.90;;;;;;5015445;28;20061;-37
2022/03/20 01:00:04;;;;;;;5.80;2.10;;;6.50;99.90;;;;;;5015210;28;20041;-30
2022/03/20 01:02:36;;;;;;;4.50;2.55;;;6.40;99.90;;;;;;5014636;28;20121;-30
2022/03/20 01:05:02;;;;;;;7.25;3.10;;;6.40;99.90;;;;;;5015219;28;20030;-30
2022/03/20 01:07:28;;;;;;;5.15;2.42;;;6.30;99.90;;;;;;5015399;28;20464;-30
2022/03/20 01:09:53;;;;;;;5.63;3.28;;;6.30;99.90;;;;;;5015114;28;20033;-35
2022/03/20 01:12:19;;;;;;;5.45;2.75;;;6.20;99.90;;;;;;4996891;28;20129;-31
2022/03/20 01:14:45;;;;;;;4.05;3.10;;;6.20;99.90;;;;;;5014875;28;20049;-35
2022/03/20 01:17:10;;;;;;;4.03;2.90;;;6.20;99.90;;;;;;5014700;28;20029;-35
2022/03/20 01:19:37;;;;;;;6.50;2.95;;;6.30;99.90;;;;;;5014009;28;20061;-33
2022/03/20 01:22:03;;;;;;;8.75;3.15;;;6.30;99.90;;;;;;5014810;28;20026;-52
2022/03/20 01:24:29;;;;;;;3.55;2.83;;;6.20;99.90;;;;;;5014896;28;20084;-36
2022/03/20 01:26:55;;;;;;;6.07;3.53;;;6.30;99.90;;;;;;5015105;28;20363;-30
2022/03/20 01:29:21;;;;;;;7.63;3.90;;;6.20;99.90;;;;;;5014721;28;20060;-32
2022/03/20 01:31:48;;;;;;;10.07;3.42;;;6.20;99.90;;;;;;5015080;28;20018;-35
2022/03/20 01:34:14;;;;;;;6.60;3.72;;;6.20;99.90;;;;;;5014866;28;20481;-30
2022/03/20 01:36:40;;;;;;;9.93;4.13;;;6.20;99.90;;;;;;5014888;28;20061;-30
2022/03/20 01:39:06;;;;;;;8.02;4.03;;;6.20;99.90;;;;;;5014622;28;20022;-31
2022/03/20 01:41:31;;;;;;;8.32;3.92;;;6.10;99.90;;;;;;5014458;28;20018;-30
2022/03/20 01:44:02;;;;;;;12.23;4.38;;;6.10;99.90;;;;;;5014527;28;20025;-31
2022/03/20 01:46:31;;;;;;;10.52;4.40;;;6.00;99.90;;;;;;5014758;28;20458;-32
2022/03/20 01:48:57;;;;;;;7.63;4.07;;;5.90;99.90;;;;;;5014584;28;20022;-36
2022/03/20 01:54:09;;;;;;;9.13;5.00;;;5.80;99.90;;;;;;5014569;28;20513;-32
2022/03/20 01:56:36;;;;;;;8.55;4.25;;;5.80;99.90;;;;;;5014444;28;20057;-33
2022/03/20 01:59:03;;;;;;;14.38;4.38;;;5.80;99.90;;;;;;5013835;28;20030;-33
2022/03/20 02:01:29;;;;;;;7.50;3.70;;;5.90;99.90;;;;;;5020280;28;20021;-30
2022/03/20 02:03:55;;;;;;;10.82;4.93;;;5.80;99.90;;;;;;5004345;28;20034;-32
2022/03/20 02:06:22;;;;;;;7.72;3.80;;;5.80;99.90;;;;;;4995943;28;20125;-31
2022/03/20 02:08:48;;;;;;;9.68;5.05;;;5.80;99.90;;;;;;5014262;28;20029;-34
2022/03/20 02:11:13;;;;;;;7.57;4.28;;;5.80;99.90;;;;;;5014246;28;20034;-30
2022/03/20 02:13:40;;;;;;;12.23;4.25;;;5.70;99.90;;;;;;5014154;28;20037;-36
2022/03/20 02:16:06;;;;;;;11.93;5.13;;;5.80;99.90;;;;;;5014106;28;20026;-41
2022/03/20 02:18:32;;;;;;;8.73;4.55;;;5.80;99.90;;;;;;5012036;28;20504;-51
2022/03/20 02:21:03;;;;;;;7.43;4.50;;;5.70;99.90;;;;;;5014089;28;20034;-38
2022/03/20 02:23:30;;;;;;;9.15;4.75;;;5.70;99.90;;;;;;4996539;28;20493;-37
2022/03/20 02:25:56;;;;;;;15.15;4.25;;;5.70;99.90;;;;;;5014327;28;20021;-38
2022/03/20 02:28:22;;;;;;;10.93;4.53;;;5.70;99.90;;;;;;5013672;28;20124;-38
2022/03/20 02:30:48;;;;;;;11.73;4.03;;;5.60;99.90;;;;;;5013731;28;20034;-38
2022/03/20 02:33:14;;;;;;;10.23;4.72;;;5.60;99.90;;;;;;5014049;28;20393;-37
2022/03/20 02:35:40;;;;;;;10.25;4.78;;;5.50;99.90;;;;;;5013847;28;20044;-36
2022/03/20 02:38:10;;;;;;;13.02;4.25;;;5.50;99.90;;;;;;5014001;28;20052;-38
2022/03/20 02:40:36;;;;;;;7.65;4.50;;;5.60;99.90;;;;;;4997051;28;20072;-36
2022/03/20 02:43:05;;;;;;;12.00;4.78;;;5.60;99.90;;;;;;4995265;28;20108;-38
2022/03/20 02:45:31;;;;;;;6.65;3.55;;;5.60;99.90;;;;;;5013303;28;20022;-36
2022/03/20 02:48:01;;;;;;;12.20;4.82;;;5.60;99.90;;;;;;5013652;28;20032;-39
2022/03/20 02:50:30;;;;;;;7.03;4.07;;;5.60;99.90;;;;;;5012627;28;20057;-38
2022/03/20 02:52:59;;;;;;;11.73;4.40;;;5.50;99.90;;;;;;5013764;28;20457;-36
2022/03/20 02:55:26;;;;;;;11.07;4.80;;;5.50;99.90;;;;;;5013456;28;20084;-37
2022/03/20 02:57:53;;;;;;;5.88;3.78;;;5.50;99.90;;;;;;5013543;28;20481;-38
2022/03/20 03:00:25;;;;;;;8.32;4.32;;;5.50;99.90;;;;;;5012705;28;20022;-39
2022/03/20 03:02:54;;;;;;;8.23;3.65;;;5.50;99.90;;;;;;5013470;28;20448;-37
2022/03/20 03:05:20;;;;;;;;;;;5.50;99.90;;;;;;5013645;28;20042;-38
2022/03/20 03:13:18;;;;;;;10.77;3.92;;;5.40;99.90;;;;;;4993978;28;20405;-37
2022/03/20 03:15:43;;;;;;;9.35;3.90;;;5.40;99.90;;;;;;5009352;28;20088;-37
2022/03/20 03:18:09;;;;;;;14.75;4.30;;;5.30;99.90;;;;;;5012895;28;20022;-37
2022/03/20 03:20:36;;;;;;;6.90;3.90;;;5.20;99.90;;;;;;5012376;28;20129;-39
2022/03/20 03:23:03;;;;;;;8.73;3.70;;;5.20;99.90;;;;;;5012802;28;20029;-59
2022/03/20 03:25:30;;;;;;;12.35;3.83;;;5.30;99.90;;;;;;4996105;28;20049;-37
2022/03/20 03:27:56;;;;;;;9.15;4.07;;;5.30;99.90;;;;;;5019506;28;20033;-38
2022/03/20 03:30:22;;;;;;;7.85;4.20;;;5.30;99.90;;;;;;5019287;28;20033;-37
2022/03/20 03:32:47;;;;;;;12.40;3.92;;;5.30;99.90;;;;;;5019096;28;20105;-37
2022/03/20 03:38:00;;;;;;;7.50;4.18;;;5.20;99.90;;;;;;5019341;28;20168;-36
2022/03/20 03:40:26;;;;;;;12.88;4.72;;;5.20;99.90;;;;;;5001209;28;20037;-38
2022/03/20 03:42:52;;;;;;;11.52;4.80;;;5.30;99.90;;;;;;5019260;28;20025;-39
2022/03/20 03:45:17;;;;;;;8.45;4.38;;;5.30;99.90;;;;;;5019237;28;20485;-37
2022/03/20 03:47:43;;;;;;;7.13;4.15;;;5.30;99.90;;;;;;4984721;28;20038;-37
2022/03/20 03:50:10;;;;;;;9.13;4.47;;;5.40;99.90;;;;;;5019115;28;20064;-56
2022/03/20 03:52:36;;;;;;;9.30;4.30;;;5.30;99.90;;;;;;5019337;28;20055;-38
2022/03/20 03:55:02;;;;;;;8.90;4.80;;;5.30;99.90;;;;;;5019417;28;20021;-38
2022/03/20 03:57:28;;;;;;;10.90;5.22;;;5.30;99.90;;;;;;5017375;28;20029;-35
2022/03/20 03:59:54;;;;;;;13.07;5.55;;;5.30;99.90;;;;;;5019164;28;20048;-38
2022/03/20 04:02:21;;;;;;;8.75;4.38;;;5.30;99.90;;;;;;5001501;28;20018;-38
2022/03/20 04:04:47;;;;;;;10.77;5.47;;;5.30;99.90;;;;;;5018829;28;20528;-38
2022/03/20 04:07:17;;;;;;;14.88;5.50;;;5.20;99.90;;;;;;5018558;28;20517;-38
2022/03/20 04:09:46;;;;;;;8.13;4.47;;;5.20;99.90;;;;;;5018874;28;20034;-38
2022/03/20 04:12:15;;;;;;;13.50;6.05;;;5.20;99.90;;;;;;5019127;28;20038;-39
2022/03/20 04:14:42;;;;;;;8.90;5.30;;;5.20;99.90;;;;;;5001088;28;20037;-39
2022/03/20 04:17:09;;;;;;;11.15;4.25;;;5.20;99.90;;;;;;5018878;28;20034;-53
2022/03/20 04:19:34;;;;;;;15.55;4.90;;;5.20;99.90;;;;;;5018909;28;20486;-37
2022/03/20 04:22:00;;;;;;;10.60;4.88;;;5.10;99.90;;;;;;5018921;28;20071;-37
2022/03/20 04:24:26;;;;;;;9.23;4.80;;;5.10;99.90;;;;;;5018583;28;20577;-39
2022/03/20 04:26:53;;;;;;;12.30;5.47;;;5.10;99.90;;;;;;5018762;28;20046;-38
2022/03/20 04:29:22;;;;;;;13.77;5.60;;;5.00;99.90;;;;;;5018725;28;20026;-38
2022/03/20 04:31:48;;;;;;;12.13;4.72;;;5.00;99.90;;;;;;5018948;28;20038;-38
2022/03/20 04:34:14;;;;;;;8.38;5.25;;;5.10;99.90;;;;;;5018627;28;20022;-38
2022/03/20 04:36:41;;;;;;;12.55;5.68;;;5.10;99.90;;;;;;5018717;28;20486;-38
2022/03/20 04:39:07;;;;;;;13.35;5.60;;;5.00;99.90;;;;;;5014023;28;20122;-37
2022/03/20 04:41:33;;;;;;;12.77;6.22;;;5.00;99.90;;;;;;5015285;28;20100;-37
2022/03/20 04:43:59;;;;;;;12.48;5.70;;;5.00;99.90;;;;;;5013692;28;20049;-39
2022/03/20 04:46:25;;;;;;;13.52;5.03;;;5.00;99.90;;;;;;5015614;28;20450;-37
2022/03/20 04:59:47;;;;;;;11.65;5.53;;;4.80;99.90;;;;;;5015675;28;20060;-40
2022/03/20 05:02:13;;;;;;;11.65;5.95;;;4.80;99.90;;;;;;5015218;28;20101;-39
2022/03/20 05:04:38;;;;;;;22.23;5.88;;;4.80;99.90;;;;;;4997297;28;20040;-39
2022/03/20 05:07:05;;;;;;;15.65;5.50;;;4.80;99.90;;;;;;5014751;28;20049;-37
2022/03/20 05:15:05;;;;;;;9.00;5.25;;;4.80;99.90;;;;;;5010162;28;20053;-37
2022/03/20 05:17:31;;;;;;;16.63;5.80;;;4.80;99.90;;;;;;4996972;28;20065;-36
2022/03/20 05:19:56;;;;;;;10.43;6.55;;;4.80;99.90;;;;;;5014765;28;20492;-38
2022/03/20 05:22:22;;;;;;;16.23;6.68;;;4.80;99.90;;;;;;5015061;28;20088;-38
2022/03/20 05:24:47;;;;;;;16.00;6.15;;;4.70;99.90;;;;;;4996916;28;20038;-37
2022/03/20 05:27:13;;;;;;;12.68;5.90;;;4.70;99.90;;;;;;5014820;28;20037;-37
2022/03/20 05:29:40;;;;;;;15.88;6.13;;;4.80;99.90;;;;;;5014953;28;20544;-38
2022/03/20 05:32:07;;;;;;;14.85;6.45;;;4.80;99.90;;;;;;5014806;28;20124;-38
2022/03/20 05:34:34;;;;;;;12.13;6.35;;;4.80;99.90;;;;;;5014432;28;20462;-35
2022/03/20 05:37:00;;;;;;;12.77;6.18;;;4.90;99.90;;;;;;5014494;28;20137;-38
2022/03/20 05:39:26;;;;;;;10.80;6.60;;;4.90;99.90;;;;;;5014458;28;20021;-56
2022/03/20 05:41:52;;;;;;;15.18;7.03;;;5.00;99.90;;;;;;5014141;28;20097;-38
2022/03/20 05:44:26;;;;;;;14.80;6.72;;;4.90;99.90;;;;;;5013989;28;20026;-36
2022/03/20 05:46:53;;;;;;;17.05;6.75;;;4.90;99.90;;;;;;4980794;28;20485;-38
2022/03/20 05:49:20;;;;;;;15.48;6.68;;;4.90;99.90;;;;;;5013982;28;20040;-37
2022/03/20 05:51:46;;;;;;;12.93;6.07;;;4.90;99.90;;;;;;5014316;28;20053;-37
2022/03/20 05:54:13;;;;;;;14.75;6.50;;;5.00;99.90;;;;;;5014305;28;20492;-38
2022/03/20 05:59:24;;;;;;;15.52;6.70;;;5.10;99.90;;;;;;5014068;28;20388;-38
2022/03/20 06:01:51;;;;;;;13.40;6.55;;;5.10;99.90;;;;;;5014172;28;20113;-30
2022/03/20 06:04:20;;;;;;;16.60;6.47;;;5.20;99.90;;;;;;5013974;28;20014;-30
2022/03/20 06:06:48;;;;;;;17.92;7.30;;;5.20;99.90;;;;;;5013387;28;20070;-30
2022/03/20 06:09:14;;;;;;;13.95;6.97;;;5.30;99.90;;;;;;5014142;28;20049;-30
2022/03/20 06:11:40;;;;;;;11.90;6.63;;;5.30;99.90;;;;;;5013945;28;20038;-29
2022/03/20 06:14:07;;;;;;;18.50;7.50;;;5.30;99.90;;;;;;5014129;28;20490;-28
2022/03/20 06:16:34;;;;;;;11.90;5.47;;;5.20;99.90;;;;;;5014078;28;20061;-31
2022/03/20 06:19:00;;;;;;;24.90;6.68;;;5.40;99.90;;;;;;5013837;28;20445;-34
2022/03/20 06:21:26;;;;;;;18.77;7.65;;;5.30;99.90;;;;;;5013517;28;20493;-38
2022/03/20 06:23:54;;;;;;;15.95;6.97;;;5.30;99.90;;;;;;5014109;28;20026;-37
2022/03/20 06:26:20;;;;;;;14.45;6.25;;;5.40;99.90;;;;;;5013217;28;20529;-37
2022/03/20 06:28:46;;;;;;;16.10;7.32;;;5.40;99.90;;;;;;5013954;28;20014;-37
2022/03/20 06:31:13;;;;;;;12.75;6.85;;;5.40;99.90;;;;;;5014076;28;20489;-36
2022/03/20 06:33:39;;;;;;;16.33;7.38;;;5.40;99.90;;;;;;5013812;28;20026;-39
2022/03/20 06:36:06;;;;;;;22.90;7.68;;;5.30;99.90;;;;;;5013154;28;20446;-46
2022/03/20 06:38:34;;;;;;;16.38;6.68;;;5.30;99.90;;;;;;4995652;28;20389;-39
2022/03/20 06:41:00;;;;;;;;;;;5.40;99.90;;;;;;5013736;28;20026;-38
2022/03/20 06:43:25;;;;;;;16.85;6.95;;;5.40;99.90;;;;;;5013542;28;19968;-39
2022/03/20 06:45:53;;;;;;;10.45;6.63;;;5.40;99.90;;;;;;5013250;28;20030;-33
2022/03/20 06:48:19;;;;;;;17.60;8.02;;;5.30;99.90;;;;;;4994902;28;20038;-39
2022/03/20 06:50:45;;;;;;;13.02;6.68;;;5.30;99.90;;;;;;5013502;28;20450;-38
2022/03/20 06:53:11;;;;;;;15.30;6.68;;;5.30;99.90;;;;;;5013191;28;20481;-46
2022/03/20 06:55:37;;;;;;;18.92;7.57;;;5.40;99.90;;;;;;5012798;28;20026;-39
2022/03/20 06:58:03;;;;;;;18.80;7.80;;;5.40;99.90;;;;;;5013415;28;20057;-37
2022/03/20 07:00:29;;;;;;;28.83;7.00;;;5.40;99.90;;;;;;5012447;28;20100;-38
2022/03/20 07:03:00;;;;;;;16.48;7.35;;;5.40;99.90;;;;;;5013111;28;20495;-38
2022/03/20 07:05:26;;;;;;;28.90;7.82;;;5.40;99.90;;;;;;5009605;28;20069;-38
2022/03/20 07:07:53;;;;;;;16.67;6.35;;;5.50;99.90;;;;;;5012894;28;20034;-36
2022/03/20 07:10:22;;;;;;;23.75;8.07;;;5.50;99.90;;;;;;5013016;28;20417;-37
2022/03/20 07:12:49;;;;;;;;;;;5.50;99.90;;;;;;5013959;28;20478;-38
2022/03/20 07:15:18;;;;;;;17.27;7.57;;;5.60;99.90;;;;;;5012970;28;19910;-37
2022/03/20 07:17:44;;;;;;;15.48;7.18;;;5.80;99.90;;;;;;5012875;28;20037;-37
2022/03/20 07:20:10;;;;;;;17.52;7.65;;;5.90;99.90;;;;;;5012959;28;20022;-37
2022/03/20 07:22:36;;;;;;;16.77;8.25;;;5.90;99.90;;;;;;5012546;28;20417;-39
2022/03/20 07:30:32;;;;;;;15.98;6.90;;;6.00;99.90;;;;;;5012392;28;20029;-29
2022/03/20 07:32:57;;;;;;;15.75;8.77;;;6.00;99.90;;;;;;5012169;28;20022;-31
2022/03/20 07:35:24;;;;;;;15.25;7.22;;;6.00;99.90;;;;;;5011925;28;20454;-31
2022/03/20 07:37:50;;;;;;;20.27;8.27;;;6.10;99.90;;;;;;5012936;28;20033;-29
2022/03/20 07:40:16;;;;;;;18.48;7.63;;;6.10;99.90;;;;;;4994678;28;20054;-29
2022/03/20 07:42:42;;;;;;;15.32;7.43;;;6.20;99.90;;;;;;5012863;28;20431;-31
2022/03/20 07:45:09;;;;;;;15.40;7.70;;;6.20;99.90;;;;;;5012574;28;20090;-31
2022/03/20 07:47:35;;;;;;;14.75;7.30;;;6.30;99.90;;;;;;5012993;28;20503;-33
2022/03/20 07:50:02;;;;;;;18.65;7.63;;;6.30;99.90;;;;;;5012717;28;20504;-29
2022/03/20 07:52:29;;;;;;;16.35;7.55;;;6.30;99.90;;;;;;5011414;28;20029;-32
2022/03/20 07:54:54;;;;;;;19.33;8.63;;;6.50;99.90;;;;;;4995223;28;20460;-34
2022/03/20 07:57:20;;;;;;;17.30;7.40;;;6.50;99.90;;;;;;5012491;28;20021;-32
2022/03/20 07:59:46;;;;;;;14.88;6.93;;;6.40;99.90;;;;;;4994862;28;20076;-34
2022/03/20 08:02:12;;;;;;;14.95;7.47;;;6.30;99.90;;;;;;5011631;28;20512;-33
2022/03/20 08:04:38;;;;;;;19.35;8.55;;;6.30;99.90;;;;;;5013073;28;20516;-29
2022/03/20 08:07:05;;;;;;;17.35;8.27;;;6.20;99.90;;;;;;5012271;28;20034;-31
2022/03/20 08:09:30;;;;;;;16.92;7.65;;;6.20;99.90;;;;;;5011709;28;20022;-35
2022/03/20 08:11:56;;;;;;;18.15;7.70;;;6.20;99.90;;;;;;5013553;28;20022;-30
2022/03/20 08:14:23;;;;;;;18.50;8.07;;;6.30;99.90;;;;;;5015954;28;20068;-38
2022/03/20 08:16:50;;;;;;;17.63;8.60;;;6.40;99.90;;;;;;5016354;28;20474;-31
2022/03/20 08:19:17;;;;;;;23.48;8.23;;;6.60;99.90;;;;;;5015875;28;20018;-30
2022/03/20 08:21:43;;;;;;;17.85;9.10;;;6.80;99.90;;;;;;5015808;28;20597;-30
2022/03/20 08:24:09;;;;;;;18.08;8.98;;;6.90;99.20;;;;;;5015671;28;20077;-29
2022/03/20 08:26:35;;;;;;;16.48;7.80;;;6.80;99.50;;;;;;5015608;28;20022;-30
2022/03/20 08:29:02;;;;;;;19.48;8.50;;;6.90;99.60;;;;;;4997745;28;20486;-32
2022/03/20 08:31:28;;;;;;;16.13;8.30;;;6.90;99.00;;;;;;5013860;28;20030;-31
2022/03/20 08:33:57;;;;;;;17.48;8.18;;;7.00;98.90;;;;;;5016236;28;20112;-35
2022/03/20 08:36:24;;;;;;;17.15;8.52;;;7.20;98.70;;;;;;5015346;28;20036;-29
2022/03/20 08:38:50;;;;;;;20.40;9.15;;;7.30;98.10;;;;;;5015959;28;20504;-39
2022/03/20 08:41:16;;;;;;;21.50;9.43;;;7.30;98.10;;;;;;5014897;28;20018;-38
2022/03/20 08:43:42;;;;;;;20.45;7.95;;;7.30;98.10;;;;;;5016009;28;20018;-38
2022/03/20 08:46:07;;;;;;;14.43;8.57;;;7.40;97.90;;;;;;5015495;28;20435;-36
2022/03/20 08:48:33;;;;;;;19.23;9.10;;;7.50;97.30;;;;;;5015635;28;20444;-37
2022/03/20 08:50:58;;;;;;;17.85;8.70;;;7.50;97.40;;;;;;5015619;28;20022;-38
2022/03/20 08:53:25;;;;;;;15.48;8.32;;;7.50;97.90;;;;;;5015303;28;20088;-38
2022/03/20 08:55:51;;;;;;;19.02;8.80;;;7.50;97.60;;;;;;5015960;28;20505;-38
2022/03/20 08:58:17;;;;;;;24.85;10.80;;;7.60;97.60;;;;;;5015452;28;20551;-39
2022/03/20 09:00:43;;;;;;;20.50;8.75;;;7.60;97.10;;;;;;5015124;28;20497;-39
2022/03/20 09:03:13;;;;;;;21.30;9.50;;;7.60;97.00;;;;;;5014539;28;20026;-38
2022/03/20 09:05:39;;;;;;;19.45;8.52;;;7.60;97.20;;;;;;5015081;28;20132;-36
2022/03/20 09:08:05;;;;;;;16.48;8.73;;;7.70;96.90;;;;;;5008449;28;20026;-37
2022/03/20 09:10:31;;;;;;;23.95;9.07;;;7.80;96.70;;;;;;5012141;28;20072;-58
2022/03/20 09:13:00;;;;;;;24.90;9.55;;;7.80;96.70;;;;;;5015076;28;20532;-69
2022/03/20 09:15:27;;;;;;;17.98;8.00;;;7.80;96.80;;;;;;5014583;28;20097;-38
2022/03/20 09:20:40;;;;;;;20.73;8.82;;;7.80;96.40;;;;;;5015352;28;20122;-54
2022/03/20 09:23:09;;;;;;;;;;;7.80;96.80;;;;;;5014910;28;20022;-38
2022/03/20 09:25:35;;;;;;;15.95;9.15;;;7.80;96.50;;;;;;5014709;28;19910;-32
2022/03/20 09:28:02;;;;;;;18.25;9.20;;;7.70;96.70;;;;;;4976685;28;20035;-30
2022/03/20 09:30:27;;;;;;;20.52;9.23;;;7.60;96.60;;;;;;5013425;28;20033;-32
2022/03/20 09:32:53;;;;;;;18.02;8.63;;;7.50;96.70;;;;;;5014964;28;20105;-33
2022/03/20 09:35:19;;;;;;;19.52;8.68;;;7.50;96.70;;;;;;4997365;28;20057;-37
2022/03/20 09:37:45;;;;;;;22.23;9.55;;;7.40;96.70;;;;;;5014224;28;20486;-29
2022/03/20 09:40:11;;;;;;;24.45;10.00;;;7.40;96.80;;;;;;5004681;28;20062;-32
2022/03/20 09:42:38;;;;;;;21.77;9.35;;;7.40;97.20;;;;;;4995569;28;20466;-30
2022/03/20 09:45:09;;;;;;;19.17;8.85;;;7.40;97.00;;;;;;5014267;28;20113;-30
2022/03/20 09:47:37;;;;;;;21.42;9.63;;;7.40;97.10;;;;;;5014299;28;20026;-30
2022/03/20 09:50:03;;;;;;;22.73;10.18;;;7.40;96.80;;;;;;5014467;28;20557;-35
2022/03/20 09:52:28;;;;;;;19.65;8.88;;;7.40;96.70;;;;;;5014590;28;20033;-31
2022/03/20 09:54:57;;;;;;;20.23;9.45;;;7.50;96.80;;;;;;5014346;28;20489;-34
2022/03/20 09:57:28;;;;;;;20.17;9.32;;;7.70;96.30;;;;;;5014046;28;20165;-35
2022/03/20 09:59:53;;;;;;;22.27;9.90;;;7.70;96.10;;;;;;4995109;28;20049;-32
2022/03/20 10:02:19;;;;;;;20.35;9.60;;;7.60;96.30;;;;;;5013233;28;20030;-29
2022/03/20 10:04:53;;;;;;;18.00;9.23;;;7.70;96.60;;;;;;5014076;28;20065;-33
2022/03/20 10:07:30;;;;;;;23.92;10.90;;;7.90;96.10;;;;;;4992771;28;20097;-31
2022/03/20 10:10:16;;;;;;;19.25;9.63;;;7.90;96.20;;;;;;4993585;28;20074;-33
2022/03/20 10:12:49;;;;;;;24.02;8.57;;;8.10;95.90;;;;;;4994119;28;20046;-33
2022/03/20 10:15:27;;;;;;;22.95;9.98;;;8.10;95.90;;;;;;4994459;28;20037;-31
2022/03/20 10:18:18;;;;;;;21.92;9.68;;;8.10;95.70;;;;;;4994351;28;20517;-30
2022/03/20 10:20:51;;;;;;;18.90;9.50;;;8.30;95.70;;;;;;4983681;28;20069;-34
2022/03/20 10:23:31;;;;;;;28.08;9.57;;;8.60;95.50;;;;;;4993962;28;20069;-30
2022/03/20 10:25:57;;;;;;;22.30;9.73;;;8.90;94.80;;;;;;4994036;28;20033;-32
2022/03/20 10:28:23;;;;;;;22.58;10.73;;;9.00;94.90;;;;;;4993675;28;20383;-30
2022/03/20 10:30:59;;;;;;;22.88;9.93;;;9.00;95.00;;;;;;4994285;28;20029;-29
2022/03/20 10:33:25;;;;;;;24.17;10.23;;;9.10;94.90;;;;;;4994115;28;20038;-31
2022/03/20 10:36:17;;;;;;;22.55;10.38;;;9.30;94.60;;;;;;4992210;28;20513;-33
2022/03/20 10:38:46;;;;;;;28.92;11.23;;;9.40;94.30;;;;;;4993383;28;20096;-30
2022/03/20 10:41:26;;;;;;;18.83;10.90;;;9.20;94.30;;;;;;4978879;28;20029;-33
2022/03/20 10:43:53;;;;;;;21.33;10.85;;;9.20;94.20;;;;;;4993949;28;20034;-32
2022/03/20 10:46:23;;;;;;;25.75;10.98;;;9.20;94.30;;;;;;4993723;28;20099;-30
2022/03/20 10:48:52;;;;;;;24.92;10.30;;;9.10;94.40;;;;;;4993715;28;20526;-30
2022/03/20 10:51:40;;;;;;;28.42;10.55;;;9.00;94.50;;;;;;4993575;28;20026;-32
2022/03/20 10:54:13;;;;;;;25.92;10.90;;;8.90;95.20;;;;;;4993871;28;20038;-31
2022/03/20 10:57:00;;;;;;;24.60;10.57;;;9.00;94.40;;;;;;4993110;28;20030;-30
2022/03/20 10:59:27;;;;;;;22.83;10.50;;;9.00;94.60;;;;;;4993738;28;20471;-31
2022/03/20 11:01:53;;;;;;;18.25;9.57;;;8.90;94.30;;;;;;4993373;28;20076;-29
2022/03/20 11:04:20;;;;;;;23.95;11.00;;;8.80;94.30;;;;;;4993242;28;20030;-48
2022/03/20 11:06:48;;;;;;;31.27;17.42;;;8.60;94.60;;;;;;5004994;28;20506;-38
2022/03/20 11:09:14;;;;;;;25.58;11.65;;;8.60;94.50;;;;;;5013094;28;20022;-38
2022/03/20 11:11:49;;;;;;;26.33;11.88;;;8.50;94.50;;;;;;5013349;28;20028;-39
2022/03/20 11:14:18;;;;;;;23.30;12.73;;;8.50;94.40;;;;;;5012997;28;20026;-39
2022/03/20 11:16:47;;;;;;;22.95;11.88;;;8.50;94.80;;;;;;4995651;28;20050;-39
2022/03/20 11:19:15;;;;;;;28.13;12.02;;;8.40;97.00;;;;;;5012595;28;20062;-40
2022/03/20 11:21:44;;;;;;;23.52;11.80;;;8.20;98.70;;;;;;4995350;28;20057;-38
2022/03/20 11:24:11;;;;;;;32.05;14.13;;;8.10;98.70;;;;;;5013028;28;20022;-39
2022/03/20 11:26:39;;;;;;;24.98;12.13;;;7.80;99.90;;;;;;5012871;28;20022;-38
2022/03/20 11:29:08;;;;;;;23.45;12.13;;;7.40;99.90;;;;;;5013142;28;20095;-36
2022/03/20 11:31:36;;;;;;;26.77;12.00;;;7.20;99.90;;;;;;5013123;28;20030;-39
2022/03/20 11:34:07;;;;;;;26.23;12.75;;;7.20;99.90;;;;;;5012541;28;20026;-39
2022/03/20 11:37:12;;;;;;;28.83;11.88;;;7.30;99.90;;;;;;5002239;28;20029;-39
2022/03/20 11:40:06;;;;;;;26.10;12.18;;;7.50;99.90;;;;;;4995447;28;20114;-39
2022/03/20 11:42:32;;;;;;;27.92;12.13;;;7.90;99.90;;;;;;5009775;28;20029;-58
2022/03/20 11:45:04;;;;;;;25.30;11.93;;;8.20;99.90;;;;;;5012615;28;20061;-37
2022/03/20 11:47:34;;;;;;;23.65;11.77;;;8.40;99.30;;;;;;5014988;28;20367;-37
2022/03/20 11:50:23;;;;;;;27.30;13.70;;;8.40;98.90;;;;;;5017107;28;20661;-39
2022/03/20 11:53:00;;;;;;;32.55;13.10;;;8.40;99.60;;;;;;5016450;28;20030;-52
2022/03/20 11:55:37;;;;;;;26.70;12.45;;;8.40;98.90;;;;;;5016214;28;20104;-46
2022/03/20 11:58:26;;;;;;;30.63;13.32;;;8.60;98.70;;;;;;5016941;28;20474;-41
2022/03/20 12:01:02;;;;;;;22.60;12.15;;;8.60;99.40;;;;;;5015430;28;20030;-57
2022/03/20 12:03:50;;;;;;;24.35;12.10;;;8.70;99.00;;;;;;5016649;28;20037;-50
2022/03/20 12:06:43;;;;;;;26.55;13.02;;;8.70;98.50;;;;;;5014917;28;20069;-39
2022/03/20 12:09:36;;;;;;;30.85;14.02;;;8.80;98.70;;;;;;5016540;28;20397;-39
2022/03/20 12:12:37;;;;;;;27.83;12.70;;;8.80;98.50;;;;;;4997207;28;20057;-38
2022/03/20 12:15:10;;;;;;;24.35;12.85;;;8.90;97.80;;;;;;5015005;28;20034;-38
2022/03/20 12:17:59;;;;;;;26.42;13.07;;;8.90;98.10;;;;;;5015837;28;20112;-37
2022/03/20 12:20:59;;;;;;;30.02;14.10;;;9.00;98.80;;;;;;5015937;28;20563;-36
2022/03/20 12:23:38;;;;;;;31.10;12.65;;;9.10;99.90;;;;;;5015612;28;20018;-37
2022/03/20 12:26:31;;;;;;;28.70;13.93;;;9.20;99.90;;;;;;5015767;28;20018;-37
2022/03/20 12:29:47;;;;;;;25.10;13.65;;;9.40;99.90;;;;;;4996862;28;20076;-39
2022/03/20 12:32:15;;;;;;;28.02;13.07;;;9.50;99.90;;;;;;4948479;28;20041;-29
2022/03/20 12:35:04;;;;;;;30.50;14.20;;;9.70;99.90;;;;;;5016132;28;20049;-32
2022/03/20 12:37:37;;;;;;;24.30;13.00;;;9.80;99.90;;;;;;5002920;28;20509;-33
2022/03/20 12:40:03;;;;;;;29.33;14.10;;;9.90;99.90;;;;;;5015450;28;20044;-29
2022/03/20 12:42:30;;;;;;;29.75;14.02;;;10.00;99.20;;;;;;5015497;28;20030;-33
2022/03/20 12:44:56;;;;;;;31.63;13.80;;;10.00;99.70;;;;;;5015852;28;20025;-33
2022/03/20 12:47:24;;;;;;;26.92;13.35;;;10.00;99.40;;;;;;5015116;28;20108;-34
2022/03/20 12:50:14;;;;;;;25.88;12.60;;;10.10;99.50;;;;;;5015284;28;20036;-30
2022/03/20 12:52:39;;;;;;;28.63;12.88;;;10.40;98.60;;;;;;5007905;28;20088;-33
2022/03/20 12:55:09;;;;;;;33.45;13.60;;;10.30;98.30;;;;;;5015572;28;20477;-30
2022/03/20 12:57:48;;;;;;;28.70;13.77;;;10.10;98.30;;;;;;5015157;28;20153;-35
2022/03/20 13:00:14;;;;;;;28.63;13.23;;;10.10;98.80;;;;;;5014620;28;20030;-33
2022/03/20 13:03:07;;;;;;;32.80;14.57;;;10.20;98.00;;;;;;5015088;28;20033;-31
2022/03/20 13:05:35;;;;;;;31.35;13.93;;;10.20;98.60;;;;;;5014704;28;20068;-35
2022/03/20 13:08:01;;;;;;;30.50;14.65;;;10.40;98.30;;;;;;5011640;28;20445;-33
2022/03/20 13:10:39;;;;;;;29.20;14.52;;;10.60;98.30;;;;;;5009197;28;20023;-30
2022/03/20 13:13:07;;;;;;;28.52;13.63;;;10.60;98.20;;;;;;5007450;28;20026;-31
2022/03/20 13:15:36;;;;;;;30.50;15.10;;;10.50;98.80;;;;;;4997731;28;20060;-30
2022/03/20 13:18:03;;;;;;;28.50;14.25;;;10.40;98.80;;;;;;5012914;28;20049;-32
2022/03/20 13:20:34;;;;;;;31.85;15.00;;;10.40;98.90;;;;;;5012285;28;20116;-29
2022/03/20 13:23:09;;;;;;;29.75;13.85;;;10.50;98.50;;;;;;5012699;28;20730;-45
2022/03/20 13:26:00;;;;;;;24.00;13.07;;;10.70;98.00;;;;;;5012994;28;20029;-39
2022/03/20 13:28:34;;;;;;;26.02;14.52;;;10.50;98.70;;;;;;4999962;28;20092;-33
2022/03/20 13:31:03;;;;;;;36.45;13.40;;;10.40;98.80;;;;;;5015356;28;20363;-31
2022/03/20 13:33:34;;;;;;;27.77;13.18;;;10.40;98.10;;;;;;5011214;28;20034;-28
2022/03/20 13:36:12;;;;;;;32.13;15.18;;;10.20;98.70;;;;;;5012360;28;20076;-29